sensor_id;sensor_type;location;lat;lon;timestamp;P1;durP1;ratioP1;P2;durP2;ratioP2
49378;SDS011;35254;47.990;-1.608;2022-11-20T00:00:01;2.53;;;1.83;;
49378;SDS011;35254;47.990;-1.608;2022-11-20T00:02:28;3.30;;;1.63;;
49378;SDS011;35254;47.990;-1.608;2022-11-20T00:04:53;3.83;;;1.98;;
49378;SDS011;35254;47.990;-1.608;2022-11-20T00:07:19;3.28;;;2.10;;
49378;SDS011;35254;47.990;-1.608;2022-11-20T00:09:44;2.88;;;2.50;;
49378;SDS011;35254;47.990;-1.608;2022-11-20T00:12:10;4.15;;;2.28;;
49378;SDS011;35254;47.990;-1.608;2022-11-20T00:14:35;3.67;;;2.25;;
49378;SDS011;35254;47.990;-1.608;2022-11-20T00:17:01;4.22;;;2.47;;
49378;SDS011;35254;47.990;-1.608;2022-11-20T00:19:26;1.83;;;1.60;;
49378;SDS011;35254;47.990;-1.608;2022-11-20T00:21:52;2.50;;;2.22;;
49378;SDS011;35254;47.990;-1.608;2022-11-20T00:24:20;2.55;;;1.73;;
49378;SDS011;35254;47.990;-1.608;2022-11-20T00:26:45;2.70;;;2.28;;
49378;SDS011;35254;47.990;-1.608;2022-11-20T00:29:11;3.40;;;2.20;;
49378;SDS011;35254;47.990;-1.608;2022-11-20T00:31:37;2.70;;;1.90;;
49378;SDS011;35254;47.990;-1.608;2022-11-20T00:34:02;3.08;;;1.77;;
49378;SDS011;35254;47.990;-1.608;2022-11-20T00:36:31;5.30;;;2.13;;
49378;SDS011;35254;47.990;-1.608;2022-11-20T00:38:58;1.83;;;1.55;;
49378;SDS011;35254;47.990;-1.608;2022-11-20T00:41:25;5.47;;;2.08;;
49378;SDS011;35254;47.990;-1.608;2022-11-20T00:43:52;10.55;;;2.40;;
49378;SDS011;35254;47.990;-1.608;2022-11-20T00:46:20;2.35;;;2.08;;
49378;SDS011;35254;47.990;-1.608;2022-11-20T00:48:47;2.35;;;1.90;;
49378;SDS011;35254;47.990;-1.608;2022-11-20T00:51:14;2.65;;;2.08;;
49378;SDS011;35254;47.990;-1.608;2022-11-20T00:53:41;4.60;;;2.30;;
49378;SDS011;35254;47.990;-1.608;2022-11-20T00:56:10;2.60;;;1.92;;
49378;SDS011;35254;47.990;-1.608;2022-11-20T00:58:39;3.42;;;2.17;;
49378;SDS011;35254;47.990;-1.608;2022-11-20T01:01:13;2.05;;;1.80;;
49378;SDS011;35254;47.990;-1.608;2022-11-20T01:03:44;4.55;;;1.75;;
49378;SDS011;35254;47.990;-1.608;2022-11-20T01:06:16;4.57;;;1.95;;
49378;SDS011;35254;47.990;-1.608;2022-11-20T01:08:46;3.58;;;1.65;;
49378;SDS011;35254;47.990;-1.608;2022-11-20T01:11:15;2.53;;;1.88;;
49378;SDS011;35254;47.990;-1.608;2022-11-20T01:13:42;3.47;;;1.50;;
49378;SDS011;35254;47.990;-1.608;2022-11-20T01:18:47;3.58;;;2.33;;
49378;SDS011;35254;47.990;-1.608;2022-11-20T01:21:21;2.22;;;1.58;;
49378;SDS011;35254;47.990;-1.608;2022-11-20T01:23:54;2.70;;;1.90;;
49378;SDS011;35254;47.990;-1.608;2022-11-20T01:26:22;3.05;;;2.15;;
49378;SDS011;35254;47.990;-1.608;2022-11-20T01:28:55;2.95;;;2.00;;
49378;SDS011;35254;47.990;-1.608;2022-11-20T01:31:29;3.05;;;1.80;;
49378;SDS011;35254;47.990;-1.608;2022-11-20T01:33:57;1.70;;;1.60;;
49378;SDS011;35254;47.990;-1.608;2022-11-20T01:36:25;2.47;;;1.60;;
49378;SDS011;35254;47.990;-1.608;2022-11-20T01:38:53;1.73;;;1.55;;
49378;SDS011;35254;47.990;-1.608;2022-11-20T01:41:20;2.28;;;1.42;;
49378;SDS011;35254;47.990;-1.608;2022-11-20T01:44:05;7.00;;;2.15;;
49378;SDS011;35254;47.990;-1.608;2022-11-20T01:46:31;2.20;;;1.50;;
49378;SDS011;35254;47.990;-1.608;2022-11-20T01:49:23;5.32;;;2.00;;
49378;SDS011;35254;47.990;-1.608;2022-11-20T01:52:00;2.10;;;1.70;;
49378;SDS011;35254;47.990;-1.608;2022-11-20T01:54:31;1.52;;;1.42;;
49378;SDS011;35254;47.990;-1.608;2022-11-20T01:57:01;2.92;;;1.73;;
49378;SDS011;35254;47.990;-1.608;2022-11-20T01:59:28;4.90;;;1.67;;
49378;SDS011;35254;47.990;-1.608;2022-11-20T02:01:54;3.17;;;2.03;;
49378;SDS011;35254;47.990;-1.608;2022-11-20T02:04:20;2.25;;;1.73;;
49378;SDS011;35254;47.990;-1.608;2022-11-20T02:07:21;3.35;;;1.77;;
49378;SDS011;35254;47.990;-1.608;2022-11-20T02:09:39;4.45;;;1.50;;
49378;SDS011;35254;47.990;-1.608;2022-11-20T02:12:05;1.67;;;1.58;;
49378;SDS011;35254;47.990;-1.608;2022-11-20T02:14:51;2.53;;;2.00;;
49378;SDS011;35254;47.990;-1.608;2022-11-20T02:17:16;3.50;;;1.70;;
49378;SDS011;35254;47.990;-1.608;2022-11-20T02:19:42;2.83;;;1.58;;
49378;SDS011;35254;47.990;-1.608;2022-11-20T02:22:12;2.10;;;1.60;;
49378;SDS011;35254;47.990;-1.608;2022-11-20T02:24:42;3.58;;;1.70;;
49378;SDS011;35254;47.990;-1.608;2022-11-20T02:27:11;2.60;;;1.60;;
49378;SDS011;35254;47.990;-1.608;2022-11-20T02:32:43;5.43;;;1.83;;
49378;SDS011;35254;47.990;-1.608;2022-11-20T02:35:06;2.40;;;1.63;;
49378;SDS011;35254;47.990;-1.608;2022-11-20T02:37:57;4.80;;;1.75;;
49378;SDS011;35254;47.990;-1.608;2022-11-20T02:40:26;3.20;;;1.67;;
49378;SDS011;35254;47.990;-1.608;2022-11-20T02:42:52;2.25;;;1.40;;
49378;SDS011;35254;47.990;-1.608;2022-11-20T02:45:18;2.65;;;1.85;;
49378;SDS011;35254;47.990;-1.608;2022-11-20T02:47:44;2.05;;;1.48;;
49378;SDS011;35254;47.990;-1.608;2022-11-20T02:50:10;8.82;;;1.63;;
49378;SDS011;35254;47.990;-1.608;2022-11-20T02:52:35;11.45;;;2.90;;
49378;SDS011;35254;47.990;-1.608;2022-11-20T02:55:01;17.27;;;2.25;;
49378;SDS011;35254;47.990;-1.608;2022-11-20T02:57:27;8.20;;;1.52;;
49378;SDS011;35254;47.990;-1.608;2022-11-20T02:59:52;18.00;;;2.17;;
49378;SDS011;35254;47.990;-1.608;2022-11-20T03:02:18;3.30;;;1.40;;
49378;SDS011;35254;47.990;-1.608;2022-11-20T03:04:44;7.60;;;1.58;;
49378;SDS011;35254;47.990;-1.608;2022-11-20T03:07:09;6.22;;;1.13;;
49378;SDS011;35254;47.990;-1.608;2022-11-20T03:09:35;9.65;;;1.60;;
49378;SDS011;35254;47.990;-1.608;2022-11-20T03:12:01;5.18;;;1.60;;
49378;SDS011;35254;47.990;-1.608;2022-11-20T03:14:26;3.83;;;1.70;;
49378;SDS011;35254;47.990;-1.608;2022-11-20T03:16:52;2.47;;;1.90;;
49378;SDS011;35254;47.990;-1.608;2022-11-20T03:19:17;4.05;;;1.77;;
49378;SDS011;35254;47.990;-1.608;2022-11-20T03:21:43;3.03;;;1.48;;
49378;SDS011;35254;47.990;-1.608;2022-11-20T03:24:09;2.72;;;1.50;;
49378;SDS011;35254;47.990;-1.608;2022-11-20T03:26:34;2.67;;;1.55;;
49378;SDS011;35254;47.990;-1.608;2022-11-20T03:29:01;4.53;;;1.80;;
49378;SDS011;35254;47.990;-1.608;2022-11-20T03:31:36;4.22;;;1.50;;
49378;SDS011;35254;47.990;-1.608;2022-11-20T03:34:05;3.10;;;1.63;;
49378;SDS011;35254;47.990;-1.608;2022-11-20T03:36:31;1.83;;;1.58;;
49378;SDS011;35254;47.990;-1.608;2022-11-20T03:38:57;2.85;;;1.55;;
49378;SDS011;35254;47.990;-1.608;2022-11-20T03:41:24;4.85;;;1.60;;
49378;SDS011;35254;47.990;-1.608;2022-11-20T03:43:52;1.45;;;1.35;;
49378;SDS011;35254;47.990;-1.608;2022-11-20T03:46:19;6.10;;;1.10;;
49378;SDS011;35254;47.990;-1.608;2022-11-20T03:48:45;2.50;;;1.95;;
49378;SDS011;35254;47.990;-1.608;2022-11-20T03:51:13;1.92;;;1.13;;
49378;SDS011;35254;47.990;-1.608;2022-11-20T03:53:40;2.55;;;1.17;;
49378;SDS011;35254;47.990;-1.608;2022-11-20T03:56:07;1.58;;;1.25;;
49378;SDS011;35254;47.990;-1.608;2022-11-20T03:58:34;2.75;;;1.48;;
49378;SDS011;35254;47.990;-1.608;2022-11-20T04:03:33;2.30;;;1.50;;
49378;SDS011;35254;47.990;-1.608;2022-11-20T04:06:04;2.78;;;1.25;;
49378;SDS011;35254;47.990;-1.608;2022-11-20T04:08:30;2.17;;;1.40;;
49378;SDS011;35254;47.990;-1.608;2022-11-20T04:10:56;2.30;;;1.60;;
49378;SDS011;35254;47.990;-1.608;2022-11-20T04:13:21;1.35;;;1.20;;
49378;SDS011;35254;47.990;-1.608;2022-11-20T04:15:47;2.47;;;1.58;;
49378;SDS011;35254;47.990;-1.608;2022-11-20T04:18:12;1.60;;;1.45;;
49378;SDS011;35254;47.990;-1.608;2022-11-20T04:20:38;4.78;;;1.50;;
49378;SDS011;35254;47.990;-1.608;2022-11-20T04:23:04;2.40;;;1.40;;
49378;SDS011;35254;47.990;-1.608;2022-11-20T04:25:29;1.90;;;1.70;;
49378;SDS011;35254;47.990;-1.608;2022-11-20T04:27:55;1.85;;;1.40;;
49378;SDS011;35254;47.990;-1.608;2022-11-20T04:30:20;2.55;;;1.85;;
49378;SDS011;35254;47.990;-1.608;2022-11-20T04:32:46;4.45;;;1.75;;
49378;SDS011;35254;47.990;-1.608;2022-11-20T04:35:11;2.95;;;1.58;;
49378;SDS011;35254;47.990;-1.608;2022-11-20T04:37:37;1.90;;;1.33;;
49378;SDS011;35254;47.990;-1.608;2022-11-20T04:40:03;2.53;;;1.67;;
49378;SDS011;35254;47.990;-1.608;2022-11-20T04:42:29;1.48;;;1.38;;
49378;SDS011;35254;47.990;-1.608;2022-11-20T04:44:55;2.67;;;1.70;;
49378;SDS011;35254;47.990;-1.608;2022-11-20T04:47:21;2.13;;;1.65;;
49378;SDS011;35254;47.990;-1.608;2022-11-20T04:49:47;5.22;;;1.73;;
49378;SDS011;35254;47.990;-1.608;2022-11-20T04:52:12;1.75;;;1.58;;
49378;SDS011;35254;47.990;-1.608;2022-11-20T04:54:38;1.80;;;1.40;;
49378;SDS011;35254;47.990;-1.608;2022-11-20T04:57:04;2.83;;;1.85;;
49378;SDS011;35254;47.990;-1.608;2022-11-20T04:59:30;1.75;;;1.40;;
49378;SDS011;35254;47.990;-1.608;2022-11-20T05:01:55;2.60;;;1.60;;
49378;SDS011;35254;47.990;-1.608;2022-11-20T05:04:21;4.68;;;1.90;;
49378;SDS011;35254;47.990;-1.608;2022-11-20T05:06:46;4.32;;;1.42;;
49378;SDS011;35254;47.990;-1.608;2022-11-20T05:09:12;3.58;;;1.77;;
49378;SDS011;35254;47.990;-1.608;2022-11-20T05:11:38;2.92;;;1.58;;
49378;SDS011;35254;47.990;-1.608;2022-11-20T05:14:03;2.17;;;1.30;;
49378;SDS011;35254;47.990;-1.608;2022-11-20T05:16:29;3.45;;;1.30;;
49378;SDS011;35254;47.990;-1.608;2022-11-20T05:18:55;2.30;;;1.42;;
49378;SDS011;35254;47.990;-1.608;2022-11-20T05:21:22;2.33;;;1.30;;
49378;SDS011;35254;47.990;-1.608;2022-11-20T05:23:48;3.90;;;1.60;;
49378;SDS011;35254;47.990;-1.608;2022-11-20T05:26:14;2.42;;;1.42;;
49378;SDS011;35254;47.990;-1.608;2022-11-20T05:28:42;1.77;;;1.40;;
49378;SDS011;35254;47.990;-1.608;2022-11-20T05:31:09;3.58;;;1.48;;
49378;SDS011;35254;47.990;-1.608;2022-11-20T05:33:37;2.03;;;1.00;;
49378;SDS011;35254;47.990;-1.608;2022-11-20T05:36:05;1.48;;;1.30;;
49378;SDS011;35254;47.990;-1.608;2022-11-20T05:38:31;1.23;;;1.02;;
49378;SDS011;35254;47.990;-1.608;2022-11-20T05:41:04;3.13;;;1.27;;
49378;SDS011;35254;47.990;-1.608;2022-11-20T05:43:34;3.10;;;1.77;;
49378;SDS011;35254;47.990;-1.608;2022-11-20T05:46:01;1.48;;;1.10;;
49378;SDS011;35254;47.990;-1.608;2022-11-20T05:48:28;1.15;;;0.98;;
49378;SDS011;35254;47.990;-1.608;2022-11-20T05:50:54;29.85;;;5.05;;
49378;SDS011;35254;47.990;-1.608;2022-11-20T05:53:21;1.55;;;1.27;;
49378;SDS011;35254;47.990;-1.608;2022-11-20T05:55:46;1.95;;;1.00;;
49378;SDS011;35254;47.990;-1.608;2022-11-20T05:58:30;1.80;;;1.58;;
49378;SDS011;35254;47.990;-1.608;2022-11-20T06:03:40;1.98;;;1.10;;
49378;SDS011;35254;47.990;-1.608;2022-11-20T06:06:16;2.28;;;1.48;;
49378;SDS011;35254;47.990;-1.608;2022-11-20T06:08:43;1.60;;;1.10;;
49378;SDS011;35254;47.990;-1.608;2022-11-20T06:11:09;3.05;;;1.80;;
49378;SDS011;35254;47.990;-1.608;2022-11-20T06:13:36;2.20;;;1.23;;
49378;SDS011;35254;47.990;-1.608;2022-11-20T06:16:02;1.80;;;1.20;;
49378;SDS011;35254;47.990;-1.608;2022-11-20T06:18:28;2.45;;;1.20;;
49378;SDS011;35254;47.990;-1.608;2022-11-20T06:23:55;1.73;;;1.15;;
49378;SDS011;35254;47.990;-1.608;2022-11-20T06:26:22;0.70;;;0.65;;
49378;SDS011;35254;47.990;-1.608;2022-11-20T06:28:50;3.70;;;1.15;;
49378;SDS011;35254;47.990;-1.608;2022-11-20T06:31:18;1.63;;;0.98;;
49378;SDS011;35254;47.990;-1.608;2022-11-20T06:33:45;1.85;;;0.85;;
49378;SDS011;35254;47.990;-1.608;2022-11-20T06:36:12;1.55;;;1.10;;
49378;SDS011;35254;47.990;-1.608;2022-11-20T06:38:39;1.08;;;0.98;;
49378;SDS011;35254;47.990;-1.608;2022-11-20T06:41:05;1.38;;;0.80;;
49378;SDS011;35254;47.990;-1.608;2022-11-20T06:43:32;1.25;;;0.73;;
49378;SDS011;35254;47.990;-1.608;2022-11-20T06:45:58;1.90;;;0.80;;
49378;SDS011;35254;47.990;-1.608;2022-11-20T06:48:25;2.28;;;0.98;;
49378;SDS011;35254;47.990;-1.608;2022-11-20T06:50:51;1.63;;;1.00;;
49378;SDS011;35254;47.990;-1.608;2022-11-20T06:53:17;0.82;;;0.80;;
49378;SDS011;35254;47.990;-1.608;2022-11-20T06:55:43;0.80;;;0.60;;
49378;SDS011;35254;47.990;-1.608;2022-11-20T06:58:12;1.67;;;1.02;;
49378;SDS011;35254;47.990;-1.608;2022-11-20T07:00:39;0.52;;;0.52;;
49378;SDS011;35254;47.990;-1.608;2022-11-20T07:03:06;1.27;;;0.90;;
49378;SDS011;35254;47.990;-1.608;2022-11-20T07:05:32;1.85;;;0.95;;
49378;SDS011;35254;47.990;-1.608;2022-11-20T07:07:58;0.98;;;0.68;;
49378;SDS011;35254;47.990;-1.608;2022-11-20T07:10:24;2.28;;;0.90;;
49378;SDS011;35254;47.990;-1.608;2022-11-20T07:12:51;1.38;;;0.73;;
49378;SDS011;35254;47.990;-1.608;2022-11-20T07:15:17;0.77;;;0.70;;
49378;SDS011;35254;47.990;-1.608;2022-11-20T07:17:44;1.23;;;0.90;;
49378;SDS011;35254;47.990;-1.608;2022-11-20T07:20:10;1.20;;;0.90;;
49378;SDS011;35254;47.990;-1.608;2022-11-20T07:22:36;0.70;;;0.68;;
49378;SDS011;35254;47.990;-1.608;2022-11-20T07:25:02;1.08;;;0.80;;
49378;SDS011;35254;47.990;-1.608;2022-11-20T07:27:29;1.60;;;0.95;;
49378;SDS011;35254;47.990;-1.608;2022-11-20T07:29:55;0.82;;;0.80;;
49378;SDS011;35254;47.990;-1.608;2022-11-20T07:32:21;1.48;;;0.77;;
49378;SDS011;35254;47.990;-1.608;2022-11-20T07:34:47;0.60;;;0.60;;
49378;SDS011;35254;47.990;-1.608;2022-11-20T07:37:13;1.35;;;0.80;;
49378;SDS011;35254;47.990;-1.608;2022-11-20T07:39:39;0.65;;;0.65;;
49378;SDS011;35254;47.990;-1.608;2022-11-20T07:42:05;1.23;;;0.55;;
49378;SDS011;35254;47.990;-1.608;2022-11-20T07:44:31;1.00;;;0.63;;
49378;SDS011;35254;47.990;-1.608;2022-11-20T07:46:57;1.02;;;0.77;;
49378;SDS011;35254;47.990;-1.608;2022-11-20T07:49:23;0.70;;;0.70;;
49378;SDS011;35254;47.990;-1.608;2022-11-20T07:51:51;2.40;;;0.43;;
49378;SDS011;35254;47.990;-1.608;2022-11-20T07:54:20;1.10;;;0.60;;
49378;SDS011;35254;47.990;-1.608;2022-11-20T07:56:46;0.75;;;0.70;;
49378;SDS011;35254;47.990;-1.608;2022-11-20T07:59:12;0.88;;;0.80;;
49378;SDS011;35254;47.990;-1.608;2022-11-20T08:01:38;2.80;;;0.65;;
49378;SDS011;35254;47.990;-1.608;2022-11-20T08:04:05;0.98;;;0.68;;
49378;SDS011;35254;47.990;-1.608;2022-11-20T08:06:31;0.93;;;0.73;;
49378;SDS011;35254;47.990;-1.608;2022-11-20T08:08:56;1.10;;;0.70;;
49378;SDS011;35254;47.990;-1.608;2022-11-20T08:11:22;0.93;;;0.70;;
49378;SDS011;35254;47.990;-1.608;2022-11-20T08:14:07;2.58;;;0.70;;
49378;SDS011;35254;47.990;-1.608;2022-11-20T08:16:38;1.15;;;0.60;;
49378;SDS011;35254;47.990;-1.608;2022-11-20T08:19:09;0.45;;;0.40;;
49378;SDS011;35254;47.990;-1.608;2022-11-20T08:21:35;0.73;;;0.52;;
49378;SDS011;35254;47.990;-1.608;2022-11-20T08:24:01;0.65;;;0.60;;
49378;SDS011;35254;47.990;-1.608;2022-11-20T08:26:27;1.38;;;0.60;;
49378;SDS011;35254;47.990;-1.608;2022-11-20T08:28:53;0.60;;;0.60;;
49378;SDS011;35254;47.990;-1.608;2022-11-20T08:31:20;1.83;;;1.10;;
49378;SDS011;35254;47.990;-1.608;2022-11-20T08:33:46;1.10;;;0.60;;
49378;SDS011;35254;47.990;-1.608;2022-11-20T08:36:12;3.20;;;0.50;;
49378;SDS011;35254;47.990;-1.608;2022-11-20T08:38:38;0.65;;;0.43;;
49378;SDS011;35254;47.990;-1.608;2022-11-20T08:41:04;2.53;;;0.75;;
49378;SDS011;35254;47.990;-1.608;2022-11-20T08:43:49;0.88;;;0.60;;
49378;SDS011;35254;47.990;-1.608;2022-11-20T08:46:15;0.63;;;0.60;;
49378;SDS011;35254;47.990;-1.608;2022-11-20T08:48:42;0.82;;;0.68;;
49378;SDS011;35254;47.990;-1.608;2022-11-20T08:51:09;1.08;;;0.60;;
49378;SDS011;35254;47.990;-1.608;2022-11-20T08:53:36;0.90;;;0.50;;
49378;SDS011;35254;47.990;-1.608;2022-11-20T08:56:01;0.98;;;0.75;;
49378;SDS011;35254;47.990;-1.608;2022-11-20T08:58:27;5.82;;;0.70;;
49378;SDS011;35254;47.990;-1.608;2022-11-20T09:00:53;2.30;;;1.30;;
49378;SDS011;35254;47.990;-1.608;2022-11-20T09:03:18;4.53;;;0.80;;
49378;SDS011;35254;47.990;-1.608;2022-11-20T09:05:44;6.28;;;0.70;;
49378;SDS011;35254;47.990;-1.608;2022-11-20T09:08:10;4.28;;;0.80;;
49378;SDS011;35254;47.990;-1.608;2022-11-20T09:10:36;2.47;;;0.98;;
49378;SDS011;35254;47.990;-1.608;2022-11-20T09:13:04;3.17;;;0.80;;
49378;SDS011;35254;47.990;-1.608;2022-11-20T09:15:31;2.90;;;0.80;;
49378;SDS011;35254;47.990;-1.608;2022-11-20T09:17:57;2.42;;;1.00;;
49378;SDS011;35254;47.990;-1.608;2022-11-20T09:20:24;2.25;;;0.70;;
49378;SDS011;35254;47.990;-1.608;2022-11-20T09:22:51;1.95;;;0.80;;
49378;SDS011;35254;47.990;-1.608;2022-11-20T09:25:17;0.85;;;0.73;;
49378;SDS011;35254;47.990;-1.608;2022-11-20T09:27:43;1.77;;;0.80;;
49378;SDS011;35254;47.990;-1.608;2022-11-20T09:30:11;1.60;;;1.05;;
49378;SDS011;35254;47.990;-1.608;2022-11-20T09:32:41;3.25;;;0.88;;
49378;SDS011;35254;47.990;-1.608;2022-11-20T09:35:08;2.30;;;0.97;;
49378;SDS011;35254;47.990;-1.608;2022-11-20T09:37:34;3.83;;;1.35;;
49378;SDS011;35254;47.990;-1.608;2022-11-20T09:39:59;1.70;;;0.98;;
49378;SDS011;35254;47.990;-1.608;2022-11-20T09:42:28;4.63;;;1.25;;
49378;SDS011;35254;47.990;-1.608;2022-11-20T09:50:36;4.00;;;1.30;;
49378;SDS011;35254;47.990;-1.608;2022-11-20T09:53:36;8.68;;;1.52;;
49378;SDS011;35254;47.990;-1.608;2022-11-20T09:56:18;7.78;;;1.10;;
49378;SDS011;35254;47.990;-1.608;2022-11-20T09:58:45;3.42;;;1.10;;
49378;SDS011;35254;47.990;-1.608;2022-11-20T10:01:16;3.38;;;1.00;;
49378;SDS011;35254;47.990;-1.608;2022-11-20T10:06:38;8.98;;;1.35;;
49378;SDS011;35254;47.990;-1.608;2022-11-20T10:09:22;5.82;;;1.60;;
49378;SDS011;35254;47.990;-1.608;2022-11-20T10:11:58;5.05;;;1.27;;
49378;SDS011;35254;47.990;-1.608;2022-11-20T10:19:52;4.35;;;1.20;;
49378;SDS011;35254;47.990;-1.608;2022-11-20T10:30:25;4.32;;;1.80;;
49378;SDS011;35254;47.990;-1.608;2022-11-20T10:32:54;8.27;;;1.77;;
49378;SDS011;35254;47.990;-1.608;2022-11-20T10:35:40;4.03;;;1.63;;
49378;SDS011;35254;47.990;-1.608;2022-11-20T10:38:12;2.25;;;1.50;;
49378;SDS011;35254;47.990;-1.608;2022-11-20T10:40:51;5.57;;;2.03;;
49378;SDS011;35254;47.990;-1.608;2022-11-20T10:43:41;3.38;;;1.70;;
49378;SDS011;35254;47.990;-1.608;2022-11-20T10:46:10;13.18;;;1.92;;
49378;SDS011;35254;47.990;-1.608;2022-11-20T10:48:42;9.93;;;2.60;;
49378;SDS011;35254;47.990;-1.608;2022-11-20T10:54:10;9.35;;;2.60;;
49378;SDS011;35254;47.990;-1.608;2022-11-20T10:59:59;12.35;;;2.65;;
49378;SDS011;35254;47.990;-1.608;2022-11-20T11:02:32;12.25;;;2.45;;
49378;SDS011;35254;47.990;-1.608;2022-11-20T11:05:10;8.57;;;3.58;;
49378;SDS011;35254;47.990;-1.608;2022-11-20T11:07:50;10.95;;;2.25;;
49378;SDS011;35254;47.990;-1.608;2022-11-20T11:12:53;8.05;;;2.13;;
49378;SDS011;35254;47.990;-1.608;2022-11-20T11:15:28;9.18;;;2.22;;
49378;SDS011;35254;47.990;-1.608;2022-11-20T11:18:01;11.15;;;2.72;;
49378;SDS011;35254;47.990;-1.608;2022-11-20T11:20:26;11.07;;;2.60;;
49378;SDS011;35254;47.990;-1.608;2022-11-20T11:22:56;5.63;;;1.95;;
49378;SDS011;35254;47.990;-1.608;2022-11-20T11:25:25;6.53;;;1.70;;
49378;SDS011;35254;47.990;-1.608;2022-11-20T11:28:05;5.68;;;1.92;;
49378;SDS011;35254;47.990;-1.608;2022-11-20T11:30:49;7.75;;;2.88;;
49378;SDS011;35254;47.990;-1.608;2022-11-20T11:33:19;12.38;;;2.40;;
49378;SDS011;35254;47.990;-1.608;2022-11-20T11:41:03;10.13;;;2.40;;
49378;SDS011;35254;47.990;-1.608;2022-11-20T11:43:34;5.43;;;1.98;;
49378;SDS011;35254;47.990;-1.608;2022-11-20T11:52:10;12.93;;;3.17;;
49378;SDS011;35254;47.990;-1.608;2022-11-20T11:57:16;12.48;;;3.03;;
49378;SDS011;35254;47.990;-1.608;2022-11-20T11:59:51;12.90;;;3.28;;
49378;SDS011;35254;47.990;-1.608;2022-11-20T12:05:25;17.40;;;3.15;;
49378;SDS011;35254;47.990;-1.608;2022-11-20T12:07:55;10.90;;;4.13;;
49378;SDS011;35254;47.990;-1.608;2022-11-20T12:13:20;7.57;;;2.60;;
49378;SDS011;35254;47.990;-1.608;2022-11-20T12:15:59;9.60;;;2.70;;
49378;SDS011;35254;47.990;-1.608;2022-11-20T12:18:28;11.00;;;2.63;;
49378;SDS011;35254;47.990;-1.608;2022-11-20T12:26:10;11.90;;;2.67;;
49378;SDS011;35254;47.990;-1.608;2022-11-20T12:31:42;8.77;;;2.90;;
49378;SDS011;35254;47.990;-1.608;2022-11-20T12:34:36;11.73;;;2.92;;
49378;SDS011;35254;47.990;-1.608;2022-11-20T12:45:54;12.93;;;2.75;;
49378;SDS011;35254;47.990;-1.608;2022-11-20T13:00:10;7.43;;;3.17;;
49378;SDS011;35254;47.990;-1.608;2022-11-20T13:08:29;8.45;;;2.65;;
49378;SDS011;35254;47.990;-1.608;2022-11-20T13:16:29;9.27;;;2.72;;
49378;SDS011;35254;47.990;-1.608;2022-11-20T13:19:02;8.75;;;2.38;;
49378;SDS011;35254;47.990;-1.608;2022-11-20T13:24:06;8.35;;;2.63;;
49378;SDS011;35254;47.990;-1.608;2022-11-20T13:26:44;10.75;;;3.25;;
49378;SDS011;35254;47.990;-1.608;2022-11-20T13:29:12;10.35;;;2.90;;
49378;SDS011;35254;47.990;-1.608;2022-11-20T13:31:44;8.93;;;2.88;;
49378;SDS011;35254;47.990;-1.608;2022-11-20T13:34:12;6.63;;;2.90;;
49378;SDS011;35254;47.990;-1.608;2022-11-20T13:36:48;13.80;;;3.55;;
49378;SDS011;35254;47.990;-1.608;2022-11-20T13:39:23;11.43;;;3.50;;
49378;SDS011;35254;47.990;-1.608;2022-11-20T13:41:56;8.93;;;4.10;;
49378;SDS011;35254;47.990;-1.608;2022-11-20T13:44:25;11.95;;;4.00;;
49378;SDS011;35254;47.990;-1.608;2022-11-20T13:46:51;20.98;;;4.15;;
49378;SDS011;35254;47.990;-1.608;2022-11-20T13:49:31;12.10;;;4.00;;
49378;SDS011;35254;47.990;-1.608;2022-11-20T14:00:29;9.77;;;3.47;;
49378;SDS011;35254;47.990;-1.608;2022-11-20T14:05:23;7.80;;;3.20;;
49378;SDS011;35254;47.990;-1.608;2022-11-20T14:07:50;9.27;;;3.33;;
49378;SDS011;35254;47.990;-1.608;2022-11-20T14:10:19;8.93;;;2.97;;
49378;SDS011;35254;47.990;-1.608;2022-11-20T14:12:45;12.63;;;3.60;;
49378;SDS011;35254;47.990;-1.608;2022-11-20T14:15:24;12.35;;;2.70;;
49378;SDS011;35254;47.990;-1.608;2022-11-20T14:20:17;9.30;;;2.63;;
49378;SDS011;35254;47.990;-1.608;2022-11-20T14:22:51;11.23;;;3.17;;
49378;SDS011;35254;47.990;-1.608;2022-11-20T14:25:19;16.40;;;3.55;;
49378;SDS011;35254;47.990;-1.608;2022-11-20T14:27:50;12.27;;;3.20;;
49378;SDS011;35254;47.990;-1.608;2022-11-20T14:30:22;6.20;;;2.60;;
49378;SDS011;35254;47.990;-1.608;2022-11-20T14:32:49;10.35;;;3.38;;
49378;SDS011;35254;47.990;-1.608;2022-11-20T14:35:29;9.57;;;3.33;;
49378;SDS011;35254;47.990;-1.608;2022-11-20T14:37:59;14.10;;;5.22;;
49378;SDS011;35254;47.990;-1.608;2022-11-20T14:40:28;12.27;;;5.40;;
49378;SDS011;35254;47.990;-1.608;2022-11-20T14:43:01;12.00;;;4.57;;
49378;SDS011;35254;47.990;-1.608;2022-11-20T14:45:40;13.65;;;4.63;;
49378;SDS011;35254;47.990;-1.608;2022-11-20T14:48:08;14.10;;;3.53;;
49378;SDS011;35254;47.990;-1.608;2022-11-20T14:50:35;11.77;;;3.75;;
49378;SDS011;35254;47.990;-1.608;2022-11-20T14:53:03;10.07;;;4.15;;
49378;SDS011;35254;47.990;-1.608;2022-11-20T14:55:36;9.50;;;3.45;;
49378;SDS011;35254;47.990;-1.608;2022-11-20T14:58:04;6.47;;;3.13;;
49378;SDS011;35254;47.990;-1.608;2022-11-20T15:00:54;7.22;;;2.65;;
49378;SDS011;35254;47.990;-1.608;2022-11-20T15:03:20;9.82;;;2.78;;
49378;SDS011;35254;47.990;-1.608;2022-11-20T15:05:49;5.32;;;2.40;;
49378;SDS011;35254;47.990;-1.608;2022-11-20T15:08:15;6.83;;;2.57;;
49378;SDS011;35254;47.990;-1.608;2022-11-20T15:10:48;8.75;;;2.45;;
49378;SDS011;35254;47.990;-1.608;2022-11-20T15:13:16;10.45;;;2.83;;
49378;SDS011;35254;47.990;-1.608;2022-11-20T15:15:52;11.57;;;2.20;;
49378;SDS011;35254;47.990;-1.608;2022-11-20T15:18:36;9.90;;;2.92;;
49378;SDS011;35254;47.990;-1.608;2022-11-20T15:21:08;9.85;;;3.40;;
49378;SDS011;35254;47.990;-1.608;2022-11-20T15:23:36;7.07;;;2.67;;
49378;SDS011;35254;47.990;-1.608;2022-11-20T15:26:03;5.13;;;2.53;;
49378;SDS011;35254;47.990;-1.608;2022-11-20T15:28:31;4.72;;;2.17;;
49378;SDS011;35254;47.990;-1.608;2022-11-20T15:31:04;8.00;;;2.40;;
49378;SDS011;35254;47.990;-1.608;2022-11-20T15:33:31;14.25;;;2.67;;
49378;SDS011;35254;47.990;-1.608;2022-11-20T15:35:57;6.68;;;1.92;;
49378;SDS011;35254;47.990;-1.608;2022-11-20T15:38:23;10.38;;;2.78;;
49378;SDS011;35254;47.990;-1.608;2022-11-20T15:40:49;9.88;;;2.85;;
49378;SDS011;35254;47.990;-1.608;2022-11-20T15:43:14;10.50;;;2.47;;
49378;SDS011;35254;47.990;-1.608;2022-11-20T15:45:48;10.65;;;2.33;;
49378;SDS011;35254;47.990;-1.608;2022-11-20T15:48:20;9.95;;;2.83;;
49378;SDS011;35254;47.990;-1.608;2022-11-20T15:53:34;13.75;;;3.42;;
49378;SDS011;35254;47.990;-1.608;2022-11-20T15:56:00;8.65;;;2.38;;
49378;SDS011;35254;47.990;-1.608;2022-11-20T15:58:25;12.48;;;2.20;;
49378;SDS011;35254;47.990;-1.608;2022-11-20T16:00:52;9.65;;;2.70;;
49378;SDS011;35254;47.990;-1.608;2022-11-20T16:03:18;8.52;;;2.20;;
49378;SDS011;35254;47.990;-1.608;2022-11-20T16:05:44;8.85;;;2.53;;
49378;SDS011;35254;47.990;-1.608;2022-11-20T16:08:10;7.00;;;2.38;;
49378;SDS011;35254;47.990;-1.608;2022-11-20T16:10:35;5.97;;;2.40;;
49378;SDS011;35254;47.990;-1.608;2022-11-20T16:13:02;6.97;;;2.78;;
49378;SDS011;35254;47.990;-1.608;2022-11-20T16:15:50;9.38;;;2.65;;
49378;SDS011;35254;47.990;-1.608;2022-11-20T16:18:19;7.78;;;2.85;;
49378;SDS011;35254;47.990;-1.608;2022-11-20T16:20:47;8.50;;;2.70;;
49378;SDS011;35254;47.990;-1.608;2022-11-20T16:23:16;6.97;;;2.57;;
49378;SDS011;35254;47.990;-1.608;2022-11-20T16:25:42;13.65;;;3.08;;
49378;SDS011;35254;47.990;-1.608;2022-11-20T16:28:08;21.95;;;2.80;;
49378;SDS011;35254;47.990;-1.608;2022-11-20T16:30:34;11.48;;;2.97;;
49378;SDS011;35254;47.990;-1.608;2022-11-20T16:33:00;8.07;;;2.50;;
49378;SDS011;35254;47.990;-1.608;2022-11-20T16:35:27;7.82;;;2.15;;
49378;SDS011;35254;47.990;-1.608;2022-11-20T16:37:54;9.40;;;2.80;;
49378;SDS011;35254;47.990;-1.608;2022-11-20T16:40:20;5.07;;;1.73;;
49378;SDS011;35254;47.990;-1.608;2022-11-20T16:42:46;6.97;;;2.33;;
49378;SDS011;35254;47.990;-1.608;2022-11-20T16:45:11;7.88;;;2.75;;